createdAt,value
2018-06-22T00:01:58.698Z,7.67
2018-06-22T00:04:32.480Z,4.57
2018-06-22T00:07:06.462Z,7.80
2018-06-22T00:09:40.273Z,5.60
2018-06-22T00:12:14.148Z,5.23
2018-06-22T00:14:47.867Z,5.07
2018-06-22T00:17:21.661Z,7.37
2018-06-22T00:19:55.453Z,10.03
2018-06-22T00:22:29.253Z,6.63
2018-06-22T00:25:03.027Z,5.97
2018-06-22T00:27:36.862Z,5.53
2018-06-22T00:30:10.588Z,7.13
2018-06-22T00:32:44.376Z,7.47
2018-06-22T00:35:18.184Z,6.50
2018-06-22T00:37:52.043Z,7.63
2018-06-22T00:40:25.747Z,7.67
2018-06-22T00:42:59.574Z,6.37
2018-06-22T00:45:33.382Z,7.47
2018-06-22T00:48:07.182Z,7.63
2018-06-22T00:50:41.012Z,5.50
2018-06-22T00:53:36.147Z,3.40
2018-06-22T00:56:09.888Z,4.27
2018-06-22T00:58:43.638Z,4.80
2018-06-22T01:01:17.349Z,3.73
2018-06-22T01:03:51.194Z,8.53
2018-06-22T01:06:24.935Z,5.80
2018-06-22T01:08:58.684Z,5.00
2018-06-22T01:11:32.440Z,5.10
2018-06-22T01:14:06.505Z,7.67
2018-06-22T01:16:40.508Z,7.27
2018-06-22T01:19:14.353Z,5.60
2018-06-22T01:21:48.911Z,9.10
2018-06-22T01:24:22.198Z,5.53
2018-06-22T01:26:55.859Z,4.03
2018-06-22T01:29:32.093Z,5.50
2018-06-22T01:32:05.822Z,6.27
2018-06-22T01:34:39.553Z,5.47
2018-06-22T01:37:13.369Z,8.80
2018-06-22T01:39:47.094Z,7.47
2018-06-22T01:42:20.863Z,7.20
2018-06-22T01:44:54.678Z,6.47
2018-06-22T01:47:28.475Z,6.47
2018-06-22T01:50:02.284Z,6.00
2018-06-22T01:52:35.944Z,5.50
2018-06-22T01:55:09.713Z,4.67
2018-06-22T01:57:43.462Z,5.20
2018-06-22T02:00:17.241Z,4.43
2018-06-22T02:02:50.963Z,3.93
2018-06-22T02:05:24.747Z,7.47
2018-06-22T02:07:58.484Z,4.43
2018-06-22T02:10:32.370Z,2.43
2018-06-22T02:13:06.200Z,4.10
2018-06-22T02:15:40.059Z,4.30
2018-06-22T02:18:13.895Z,4.27
2018-06-22T02:20:47.719Z,4.57
2018-06-22T02:23:21.516Z,4.00
2018-06-22T02:25:55.330Z,4.33
2018-06-22T02:28:29.222Z,5.10
2018-06-22T02:31:03.018Z,6.47
2018-06-22T02:33:36.752Z,3.17
2018-06-22T02:36:10.660Z,4.37
2018-06-22T02:38:44.348Z,2.53
2018-06-22T02:41:18.323Z,8.63
2018-06-22T02:43:52.101Z,7.67
2018-06-22T02:46:25.860Z,4.03
2018-06-22T02:48:59.610Z,6.57
2018-06-22T02:51:33.493Z,5.17
2018-06-22T02:54:07.343Z,5.80
2018-06-22T02:56:41.202Z,6.53
2018-06-22T02:59:14.905Z,5.93
2018-06-22T03:01:48.709Z,6.63
2018-06-22T03:04:22.534Z,5.73
2018-06-22T03:06:56.227Z,5.97
2018-06-22T03:09:30.055Z,4.50
2018-06-22T03:12:03.771Z,5.07
2018-06-22T03:14:37.502Z,7.33
2018-06-22T03:17:11.211Z,2.33
2018-06-22T03:19:45.015Z,3.20
2018-06-22T03:22:18.761Z,3.03
2018-06-22T03:24:52.561Z,2.80
2018-06-22T03:27:26.364Z,3.23
2018-06-22T03:30:00.118Z,3.03
2018-06-22T03:32:33.875Z,5.87
2018-06-22T03:35:07.733Z,1.80
2018-06-22T03:37:41.512Z,3.37
2018-06-22T03:40:15.232Z,1.13
2018-06-22T03:42:49.010Z,1.93
2018-06-22T03:45:22.770Z,1.80
2018-06-22T03:47:56.638Z,3.77
2018-06-22T03:50:30.484Z,2.97
2018-06-22T03:53:04.237Z,1.60
2018-06-22T03:55:38.036Z,2.40
2018-06-22T03:58:11.877Z,4.97
2018-06-22T04:00:45.668Z,2.20
2018-06-22T04:03:19.507Z,2.13
2018-06-22T04:05:53.303Z,1.57
2018-06-22T04:08:27.076Z,2.43
2018-06-22T04:11:00.910Z,2.43
2018-06-22T04:13:34.748Z,4.40
2018-06-22T04:16:08.493Z,2.37
2018-06-22T04:18:42.279Z,1.60
2018-06-22T04:21:16.091Z,3.60
2018-06-22T04:23:49.863Z,5.33
2018-06-22T04:26:23.893Z,3.23
2018-06-22T04:28:57.806Z,7.43
2018-06-22T04:31:30.295Z,5.73
2018-06-22T04:34:02.752Z,7.97
2018-06-22T04:36:35.138Z,6.67
2018-06-22T04:39:11.826Z,4.93
2018-06-22T04:41:44.214Z,4.07
2018-06-22T04:44:16.615Z,3.80
2018-06-22T04:46:48.993Z,5.37
2018-06-22T04:49:21.427Z,7.07
2018-06-22T04:51:53.806Z,5.30
2018-06-22T04:54:26.227Z,4.93
2018-06-22T04:56:58.645Z,4.57
2018-06-22T04:59:31.167Z,3.97
2018-06-22T05:02:03.545Z,6.03
2018-06-22T05:04:35.977Z,3.83
2018-06-22T05:07:08.401Z,4.93
2018-06-22T05:09:40.921Z,3.03
2018-06-22T05:12:13.407Z,2.13
2018-06-22T05:14:45.809Z,2.93
2018-06-22T05:17:18.295Z,4.07
2018-06-22T05:19:50.727Z,5.47
2018-06-22T05:22:23.123Z,3.83
2018-06-22T05:24:55.642Z,3.77
2018-06-22T05:27:28.005Z,2.20
2018-06-22T05:30:00.435Z,3.40
2018-06-22T05:32:32.858Z,3.97
2018-06-22T05:35:05.567Z,3.70
2018-06-22T05:37:37.964Z,4.80
2018-06-22T05:40:10.405Z,3.47
2018-06-22T05:42:42.777Z,5.10
2018-06-22T05:45:15.227Z,2.20
2018-06-22T05:47:47.629Z,3.50
2018-06-22T05:50:20.053Z,2.97
2018-06-22T05:52:52.447Z,3.43
2018-06-22T05:55:25.690Z,2.67
2018-06-22T05:57:58.140Z,3.00
2018-06-22T06:00:30.548Z,2.63
2018-06-22T06:03:02.946Z,2.77
2018-06-22T06:05:35.411Z,1.83
2018-06-22T06:08:07.997Z,2.43
2018-06-22T06:10:40.433Z,4.20
2018-06-22T06:13:13.737Z,2.23
2018-06-22T06:15:46.161Z,4.67
2018-06-22T06:18:18.570Z,2.77
2018-06-22T06:20:51.001Z,2.43
2018-06-22T06:23:23.400Z,2.13
2018-06-22T06:25:55.865Z,4.23
2018-06-22T06:28:28.280Z,3.40
2018-06-22T06:31:00.668Z,2.23
2018-06-22T06:33:33.040Z,2.97
2018-06-22T06:36:05.444Z,2.10
2018-06-22T06:38:37.790Z,2.17
2018-06-22T06:41:10.439Z,1.97
2018-06-22T06:43:42.805Z,1.70
2018-06-22T06:46:15.220Z,3.83
2018-06-22T06:48:47.234Z,3.93
2018-06-22T06:51:19.689Z,1.87
2018-06-22T06:53:52.137Z,2.57
2018-06-22T06:56:24.900Z,4.10
2018-06-22T06:58:57.284Z,2.53
2018-06-22T07:01:29.697Z,3.83
2018-06-22T07:04:02.719Z,3.63
2018-06-22T07:06:35.108Z,1.83
2018-06-22T07:09:10.144Z,3.93
2018-06-22T07:11:42.539Z,3.03
2018-06-22T07:14:14.906Z,3.60
2018-06-22T07:16:47.325Z,4.20
2018-06-22T07:19:19.657Z,3.03
2018-06-22T07:21:52.085Z,3.27
2018-06-22T07:24:24.451Z,2.00
2018-06-22T07:26:56.910Z,3.33
2018-06-22T07:29:29.253Z,4.43
2018-06-22T07:32:01.971Z,2.77
2018-06-22T07:34:34.339Z,5.47
2018-06-22T07:37:06.737Z,3.87
2018-06-22T07:39:39.089Z,3.53
2018-06-22T07:42:11.508Z,6.57
2018-06-22T07:44:43.876Z,3.63
2018-06-22T07:47:17.170Z,4.50
2018-06-22T07:49:49.600Z,5.33
2018-06-22T07:52:22.004Z,3.57
2018-06-22T07:54:54.366Z,4.97
2018-06-22T07:57:26.789Z,6.60
2018-06-22T07:59:59.158Z,3.53
2018-06-22T08:02:31.584Z,2.80
2018-06-22T08:05:03.972Z,3.47
2018-06-22T08:07:36.414Z,6.33
2018-06-22T08:10:08.785Z,5.17
2018-06-22T08:12:41.244Z,5.50
2018-06-22T08:15:13.576Z,4.87
2018-06-22T08:17:45.961Z,5.07
2018-06-22T08:20:18.324Z,6.20
2018-06-22T08:22:50.708Z,5.93
2018-06-22T08:25:23.049Z,4.43
2018-06-22T08:27:55.509Z,4.80
2018-06-22T08:30:27.918Z,7.27
2018-06-22T08:33:00.341Z,7.20
2018-06-22T08:35:32.730Z,8.40
2018-06-22T08:38:05.154Z,5.77
2018-06-22T08:40:38.117Z,9.47
2018-06-22T08:43:10.545Z,7.07
2018-06-22T08:45:42.941Z,6.17
2018-06-22T08:48:15.350Z,8.17
2018-06-22T08:50:47.725Z,7.77
2018-06-22T08:53:20.169Z,6.53
2018-06-22T08:55:52.541Z,7.43
2018-06-22T08:58:24.977Z,10.37
2018-06-22T09:00:57.349Z,7.83
2018-06-22T09:03:29.824Z,5.43
2018-06-22T09:06:02.292Z,6.40
2018-06-22T09:08:34.897Z,8.00
2018-06-22T09:11:07.317Z,7.97
2018-06-22T09:13:39.721Z,7.13
2018-06-22T09:16:12.077Z,6.47
2018-06-22T09:18:44.533Z,5.43
2018-06-22T09:21:17.001Z,5.97
2018-06-22T09:23:49.490Z,6.83
2018-06-22T09:26:21.861Z,6.90
2018-06-22T09:28:54.358Z,8.37
2018-06-22T09:31:26.905Z,5.63
2018-06-22T09:34:00.236Z,6.90
2018-06-22T09:36:32.671Z,6.53
2018-06-22T09:39:07.130Z,6.23
2018-06-22T09:41:39.839Z,6.13
2018-06-22T09:44:41.040Z,6.20
2018-06-22T09:47:13.424Z,10.13
2018-06-22T09:49:45.845Z,6.50
2018-06-22T09:52:18.281Z,6.07
2018-06-22T09:54:50.702Z,9.50
2018-06-22T09:57:23.100Z,6.63
2018-06-22T09:59:55.517Z,6.90
2018-06-22T10:02:27.896Z,7.07
2018-06-22T10:05:00.337Z,6.33
2018-06-22T10:07:32.714Z,6.43
2018-06-22T10:10:05.184Z,7.00
2018-06-22T10:12:37.642Z,6.63
2018-06-22T10:15:10.174Z,9.77
2018-06-22T10:17:42.542Z,7.17
2018-06-22T10:20:14.994Z,8.47
2018-06-22T10:22:47.369Z,8.23
2018-06-22T10:25:19.804Z,7.70
2018-06-22T10:27:52.157Z,9.03
2018-06-22T10:30:25.252Z,5.57
2018-06-22T10:32:57.597Z,8.20
2018-06-22T10:35:30.017Z,10.53
2018-06-22T10:38:02.412Z,5.03
2018-06-22T10:40:34.968Z,5.83
2018-06-22T10:43:07.696Z,6.93
2018-06-22T10:45:40.210Z,8.60
2018-06-22T10:48:12.663Z,7.13
2018-06-22T10:50:45.086Z,7.10
2018-06-22T10:53:17.536Z,6.77
2018-06-22T10:55:49.997Z,4.67
2018-06-22T10:58:22.440Z,9.33
2018-06-22T11:00:54.843Z,6.27
2018-06-22T11:03:27.238Z,5.37
2018-06-22T11:05:59.693Z,5.03
2018-06-22T11:08:32.053Z,10.27
2018-06-22T11:11:04.453Z,5.17
2018-06-22T11:13:36.919Z,6.20
2018-06-22T11:16:09.407Z,6.27
2018-06-22T11:18:41.787Z,5.30
2018-06-22T11:21:14.252Z,4.73
2018-06-22T11:23:46.608Z,6.13
2018-06-22T11:26:19.030Z,7.10
2018-06-22T11:28:51.473Z,10.60
2018-06-22T11:31:23.886Z,9.53
2018-06-22T11:33:56.237Z,11.53
2018-06-22T11:36:28.723Z,10.00
2018-06-22T11:39:01.237Z,5.27
2018-06-22T11:41:33.697Z,11.57
2018-06-22T11:44:06.259Z,3.30
2018-06-22T11:46:38.840Z,7.53
2018-06-22T11:49:11.300Z,6.73
2018-06-22T11:51:43.828Z,4.70
2018-06-22T11:54:16.263Z,5.10
2018-06-22T11:56:48.912Z,7.73
2018-06-22T11:59:21.357Z,7.27
2018-06-22T12:01:53.792Z,6.90
2018-06-22T12:04:26.249Z,9.77
2018-06-22T12:06:58.872Z,8.90
2018-06-22T12:09:31.293Z,9.17
2018-06-22T12:12:05.190Z,9.33
2018-06-22T12:14:37.640Z,6.23
2018-06-22T12:17:10.081Z,8.47
2018-06-22T12:19:42.525Z,7.70
2018-06-22T12:22:14.618Z,6.60
2018-06-22T12:24:46.900Z,7.33
2018-06-22T12:27:19.376Z,12.87
2018-06-22T12:29:51.766Z,6.37
2018-06-22T12:32:24.164Z,10.03
2018-06-22T12:34:57.306Z,6.97
2018-06-22T12:37:29.712Z,6.00
2018-06-22T12:40:02.153Z,7.87
2018-06-22T12:42:34.591Z,6.70
2018-06-22T12:45:07.650Z,6.27
2018-06-22T12:47:39.961Z,11.27
2018-06-22T12:50:13.280Z,12.40
2018-06-22T12:52:45.697Z,8.60
2018-06-22T12:55:18.088Z,7.33
2018-06-22T12:57:50.522Z,8.33
2018-06-22T13:00:22.916Z,9.00
2018-06-22T13:02:55.341Z,8.93
2018-06-22T13:05:27.787Z,10.93
2018-06-22T13:08:00.253Z,8.73
2018-06-22T13:10:32.265Z,8.67
2018-06-22T13:13:04.545Z,6.27
2018-06-22T13:15:36.957Z,6.33
2018-06-22T13:18:09.424Z,10.37
2018-06-22T13:20:41.778Z,9.87
2018-06-22T13:23:14.157Z,7.03
2018-06-22T13:25:46.497Z,11.30
2018-06-22T13:28:19.249Z,5.83
2018-06-22T13:30:51.663Z,8.77
2018-06-22T13:33:24.140Z,5.77
2018-06-22T13:35:56.540Z,7.70
2018-06-22T13:38:28.963Z,6.10
2018-06-22T13:41:01.370Z,6.83
2018-06-22T13:43:33.830Z,10.90
2018-06-22T13:46:06.370Z,5.80
2018-06-22T13:48:38.805Z,9.13
2018-06-22T13:51:11.272Z,8.30
2018-06-22T13:53:43.670Z,5.40
2018-06-22T13:56:16.100Z,7.77
2018-06-22T13:58:48.742Z,6.70
2018-06-22T14:01:21.492Z,7.13
2018-06-22T14:03:58.881Z,8.83
2018-06-22T14:06:36.232Z,5.60
2018-06-22T14:09:13.644Z,9.00
2018-06-22T14:11:46.030Z,6.97
2018-06-22T14:14:18.498Z,5.63
2018-06-22T14:16:50.924Z,8.97
2018-06-22T14:19:23.371Z,8.93
2018-06-22T14:21:55.775Z,7.17
2018-06-22T14:24:28.529Z,8.20
2018-06-22T14:27:00.953Z,9.43
2018-06-22T14:29:33.429Z,6.80
2018-06-22T14:32:05.844Z,9.73
2018-06-22T14:34:38.301Z,9.50
2018-06-22T14:37:10.773Z,8.10
2018-06-22T14:39:43.218Z,5.63
2018-06-22T14:42:15.619Z,7.43
2018-06-22T14:44:48.895Z,7.53
2018-06-22T14:47:21.358Z,10.67
2018-06-22T14:49:53.830Z,8.03
2018-06-22T14:52:26.273Z,8.33
2018-06-22T14:55:06.221Z,9.47
2018-06-22T14:57:43.923Z,7.90
2018-06-22T15:00:21.455Z,5.83
2018-06-22T15:02:58.590Z,5.90
2018-06-22T15:05:35.895Z,7.40
2018-06-22T15:08:11.070Z,8.40
2018-06-22T15:10:43.451Z,7.60
2018-06-22T15:13:15.829Z,5.50
2018-06-22T15:15:48.195Z,11.00
2018-06-22T15:18:20.566Z,5.70
2018-06-22T15:20:52.531Z,7.62
2018-06-22T15:23:24.915Z,5.40
2018-06-22T15:25:56.969Z,8.50
2018-06-22T15:28:29.271Z,6.63
2018-06-22T15:31:01.671Z,7.83
2018-06-22T15:33:42.717Z,7.10
2018-06-22T15:36:20.013Z,8.07
2018-06-22T15:38:57.193Z,10.20
2018-06-22T15:41:34.543Z,6.93
2018-06-22T15:44:11.884Z,13.53
2018-06-22T15:46:49.737Z,12.70
2018-06-22T15:49:27.145Z,8.60
2018-06-22T15:53:08.154Z,12.40
2018-06-22T15:55:47.758Z,11.53
2018-06-22T15:58:21.873Z,9.63
2018-06-22T16:00:55.150Z,11.03
2018-06-22T16:03:32.907Z,7.47
2018-06-22T16:06:05.925Z,8.23
2018-06-22T16:08:38.777Z,7.47
2018-06-22T16:11:11.827Z,10.53
2018-06-22T16:13:48.109Z,5.83
2018-06-22T16:16:25.592Z,8.73
2018-06-22T16:19:02.895Z,6.50
2018-06-22T16:21:40.319Z,12.70
2018-06-22T16:24:17.648Z,6.13
2018-06-22T16:26:55.205Z,8.27
2018-06-22T16:29:27.604Z,7.87
2018-06-22T16:31:59.639Z,6.27
2018-06-22T16:34:31.919Z,8.20
2018-06-22T16:37:04.342Z,10.10
2018-06-22T16:39:36.825Z,9.63
2018-06-22T16:42:09.291Z,10.30
2018-06-22T16:44:41.700Z,11.33
2018-06-22T16:47:14.152Z,5.17
2018-06-22T16:49:46.553Z,10.17
2018-06-22T16:52:19.910Z,10.80
2018-06-22T16:54:52.282Z,10.47
2018-06-22T16:57:24.748Z,10.07
2018-06-22T16:59:57.111Z,9.03
2018-06-22T17:02:30.014Z,8.57
2018-06-22T17:05:02.418Z,11.97
2018-06-22T17:07:39.903Z,14.17
2018-06-22T17:10:17.177Z,14.83
2018-06-22T17:12:54.529Z,10.37
2018-06-22T17:15:31.948Z,9.60
2018-06-22T17:18:09.354Z,9.73
2018-06-22T17:20:41.769Z,11.67
2018-06-22T17:23:14.210Z,8.50
2018-06-22T17:25:46.684Z,13.07
2018-06-22T17:28:19.132Z,13.13
2018-06-22T17:30:51.505Z,9.87
2018-06-22T17:33:23.935Z,11.53
2018-06-22T17:35:56.506Z,6.63
2018-06-22T17:38:28.908Z,7.03
2018-06-22T17:41:01.285Z,8.90
2018-06-22T17:43:33.713Z,9.63
2018-06-22T17:46:06.539Z,6.50
2018-06-22T17:48:38.919Z,10.67
2018-06-22T17:51:11.312Z,8.30
2018-06-22T17:53:43.696Z,9.90
2018-06-22T17:56:19.974Z,14.97
2018-06-22T17:58:57.242Z,8.37
2018-06-22T18:01:34.491Z,11.20
2018-06-22T18:04:11.862Z,7.17
2018-06-22T18:06:49.285Z,14.83
2018-06-22T18:09:28.106Z,10.20
2018-06-22T18:12:06.190Z,9.13
2018-06-22T18:14:38.542Z,10.90
2018-06-22T18:17:10.947Z,12.40
2018-06-22T18:19:43.302Z,8.27
2018-06-22T18:22:15.770Z,13.17
2018-06-22T18:24:48.119Z,13.57
2018-06-22T18:27:20.530Z,10.50
2018-06-22T18:29:52.928Z,12.17
2018-06-22T18:32:25.476Z,38.97
2018-06-22T18:34:57.899Z,31.37
2018-06-22T18:37:30.285Z,16.07
2018-06-22T18:40:02.718Z,8.40
2018-06-22T18:42:35.461Z,14.27
2018-06-22T18:45:10.930Z,10.47
2018-06-22T18:47:43.671Z,10.13
2018-06-22T18:50:16.053Z,14.00
2018-06-22T18:52:53.494Z,10.47
2018-06-22T18:55:30.780Z,11.70
2018-06-22T18:58:08.081Z,24.73
2018-06-22T19:00:45.324Z,15.93
2018-06-22T19:03:22.797Z,11.10
2018-06-22T19:05:55.181Z,11.43
2018-06-22T19:08:27.553Z,8.23
2018-06-22T19:11:00.002Z,9.37
2018-06-22T19:13:32.456Z,10.40
2018-06-22T19:16:04.885Z,10.53
2018-06-22T19:18:37.288Z,8.40
2018-06-22T19:21:10.739Z,7.50
2018-06-22T19:23:43.114Z,8.70
2018-06-22T19:26:15.539Z,9.90
2018-06-22T19:28:47.951Z,8.80
2018-06-22T19:31:21.768Z,10.23
2018-06-22T19:33:54.118Z,10.13
2018-06-22T19:36:26.557Z,12.70
2018-06-22T19:38:58.936Z,13.20
2018-06-22T19:41:31.306Z,10.00
2018-06-22T19:44:08.635Z,8.03
2018-06-22T19:46:45.915Z,8.53
2018-06-22T19:49:23.236Z,7.87
2018-06-22T19:52:07.736Z,11.13
2018-06-22T19:54:43.545Z,11.73
2018-06-22T19:57:15.967Z,9.40
2018-06-22T19:59:48.330Z,11.60
2018-06-22T20:02:20.932Z,10.10
2018-06-22T20:04:53.339Z,8.97
2018-06-22T20:07:25.712Z,12.50
2018-06-22T20:09:58.059Z,11.03
2018-06-22T20:12:30.465Z,13.20
2018-06-22T20:15:02.833Z,13.80
2018-06-22T20:17:35.172Z,16.87
2018-06-22T20:20:09.172Z,14.07
2018-06-22T20:22:41.640Z,13.20
2018-06-22T20:25:18.846Z,10.80
2018-06-22T20:27:51.208Z,13.47
2018-06-22T20:30:23.901Z,13.93
2018-06-22T20:32:56.377Z,12.57
2018-06-22T20:35:33.686Z,11.67
2018-06-22T20:38:11.469Z,9.77
2018-06-22T20:40:49.274Z,9.00
2018-06-22T20:43:26.737Z,14.57
2018-06-22T20:46:00.745Z,13.50
2018-06-22T20:48:38.106Z,11.87
2018-06-22T20:51:10.874Z,9.60
2018-06-22T20:53:43.595Z,14.07
2018-06-22T20:56:16.519Z,12.90
2018-06-22T20:58:49.104Z,11.67
2018-06-22T21:01:22.996Z,12.40
2018-06-22T21:03:56.797Z,11.47
2018-06-22T21:06:30.671Z,14.17
2018-06-22T21:09:04.822Z,11.63
2018-06-22T21:11:42.515Z,12.43
2018-06-22T21:14:16.451Z,13.90
2018-06-22T21:16:50.269Z,14.23
2018-06-22T21:19:24.142Z,16.33
2018-06-22T21:22:02.797Z,12.83
2018-06-22T21:24:36.629Z,14.57
2018-06-22T21:27:15.375Z,14.80
2018-06-22T21:29:53.766Z,12.53
2018-06-22T21:32:32.324Z,15.70
2018-06-22T21:35:10.412Z,18.33
2018-06-22T21:37:48.865Z,16.27
2018-06-22T21:40:22.552Z,17.33
2018-06-22T21:42:55.723Z,17.50
2018-06-22T21:45:29.380Z,15.73
2018-06-22T21:48:03.241Z,18.13
2018-06-22T21:50:36.958Z,19.07
2018-06-22T21:53:10.716Z,17.10
2018-06-22T21:55:44.455Z,16.90
2018-06-22T21:58:18.235Z,19.60
2018-06-22T22:00:52.066Z,18.53
2018-06-22T22:03:25.961Z,21.17
2018-06-22T22:05:59.703Z,22.93
2018-06-22T22:08:33.509Z,20.37
2018-06-22T22:11:09.008Z,17.23
2018-06-22T22:13:44.023Z,15.07
2018-06-22T22:16:17.726Z,15.87
2018-06-22T22:18:51.540Z,22.70
2018-06-22T22:21:25.457Z,16.37
2018-06-22T22:23:59.281Z,19.83
2018-06-22T22:26:33.005Z,19.07
2018-06-22T22:29:07.313Z,19.50
2018-06-22T22:31:41.103Z,21.23
2018-06-22T22:34:14.893Z,18.77
2018-06-22T22:36:48.717Z,20.33
2018-06-22T22:39:22.556Z,17.20
2018-06-22T22:41:56.245Z,21.47
2018-06-22T22:44:30.101Z,17.67
2018-06-22T22:47:03.954Z,19.50
2018-06-22T22:49:37.767Z,15.93
2018-06-22T22:52:11.440Z,19.40
2018-06-22T22:54:45.232Z,22.20
2018-06-22T22:57:19.485Z,20.30
2018-06-22T22:59:53.226Z,17.20
2018-06-22T23:02:27.020Z,17.27
2018-06-22T23:05:00.716Z,19.23
2018-06-22T23:07:34.624Z,19.03
2018-06-22T23:10:09.018Z,18.53
2018-06-22T23:12:42.739Z,24.87
2018-06-22T23:15:16.784Z,21.37
2018-06-22T23:17:50.678Z,19.33
2018-06-22T23:20:25.693Z,20.60
2018-06-22T23:23:20.818Z,19.60
2018-06-22T23:25:54.561Z,19.57
2018-06-22T23:28:28.515Z,15.40
2018-06-22T23:31:03.565Z,20.97
2018-06-22T23:33:37.766Z,23.17
2018-06-22T23:36:16.442Z,23.27
2018-06-22T23:38:53.131Z,17.10
2018-06-22T23:41:30.656Z,22.63
2018-06-22T23:44:04.784Z,22.27
2018-06-22T23:46:38.495Z,22.40
2018-06-22T23:49:12.321Z,19.20
2018-06-22T23:51:46.301Z,21.73
2018-06-22T23:54:20.163Z,19.23
2018-06-22T23:56:53.939Z,16.27
2018-06-22T23:59:27.698Z,19.47
